Time;durP1;ratioP1;P1;durP2;ratioP2;P2;SDS_P1;SDS_P2;PMS_P1;PMS_P2;Temp;Humidity;BMP_temperature;BMP_pressure;BME280_temperature;BME280_humidity;BME280_pressure;Samples;Min_cycle;Max_cycle;Signal;HPM_P1;HPM_P2
2022/03/15 00:00:39;;;;;;;45.40;24.23;;;6.10;99.90;;;;;;5012177;28;20069;-81
2022/03/15 00:03:05;;;;;;;52.60;25.77;;;6.10;99.90;;;;;;5010525;28;20022;-81
2022/03/15 00:05:31;;;;;;;45.70;24.20;;;6.10;99.90;;;;;;5011678;28;20061;-82
2022/03/15 00:07:56;;;;;;;53.28;26.60;;;6.10;99.90;;;;;;5008940;28;20025;-81
2022/03/15 00:10:22;;;;;;;48.70;24.60;;;6.10;99.90;;;;;;5011971;28;20101;-81
2022/03/15 00:12:49;;;;;;;47.55;25.13;;;6.00;99.90;;;;;;5011787;28;20049;-80
2022/03/15 00:15:15;;;;;;;42.63;24.90;;;6.10;99.90;;;;;;5009271;28;20111;-81
2022/03/15 00:17:42;;;;;;;48.08;23.98;;;6.10;99.90;;;;;;5011140;28;20411;-80
2022/03/15 00:20:10;;;;;;;51.80;26.92;;;6.00;99.90;;;;;;5011811;28;20532;-81
2022/03/15 00:22:38;;;;;;;44.45;22.80;;;6.00;99.90;;;;;;5011833;28;20033;-81
2022/03/15 00:25:08;;;;;;;45.03;24.35;;;6.00;99.90;;;;;;5011122;28;20026;-81
2022/03/15 00:27:35;;;;;;;43.95;22.85;;;6.00;99.90;;;;;;5003570;28;20077;-81
2022/03/15 00:30:03;;;;;;;41.97;23.23;;;5.90;99.90;;;;;;5006736;28;20072;-81
2022/03/15 00:32:28;;;;;;;47.60;22.40;;;5.90;99.90;;;;;;5009049;28;20018;-81
2022/03/15 00:34:54;;;;;;;48.13;23.58;;;5.90;99.90;;;;;;5012153;28;20083;-81
2022/03/15 00:37:20;;;;;;;44.65;20.83;;;5.80;99.90;;;;;;5011945;28;20034;-80
2022/03/15 00:39:46;;;;;;;37.60;20.58;;;5.80;99.90;;;;;;5011041;28;20022;-82
2022/03/15 00:42:12;;;;;;;46.42;22.85;;;5.70;99.90;;;;;;5011079;28;20029;-82
2022/03/15 00:44:38;;;;;;;42.03;23.00;;;5.70;99.90;;;;;;5009441;28;20026;-81
2022/03/15 00:47:05;;;;;;;40.10;21.05;;;5.60;99.90;;;;;;5009003;28;20025;-80
2022/03/15 00:49:31;;;;;;;41.45;19.92;;;5.60;99.90;;;;;;5000989;28;20057;-81
2022/03/15 00:51:56;;;;;;;46.22;22.80;;;5.50;99.90;;;;;;5011020;28;20021;-82
2022/03/15 00:54:22;;;;;;;46.13;21.40;;;5.40;99.90;;;;;;5026120;28;20451;-81
2022/03/15 00:56:50;;;;;;;38.45;20.52;;;5.40;99.90;;;;;;5012226;28;20391;-83
2022/03/15 00:59:17;;;;;;;51.17;22.30;;;5.40;99.90;;;;;;5011418;28;20025;-81
2022/03/15 01:01:43;;;;;;;33.13;19.50;;;5.30;99.90;;;;;;5011731;28;20041;-82
2022/03/15 01:04:08;;;;;;;47.53;22.33;;;5.20;99.90;;;;;;5007724;28;20030;-82
2022/03/15 01:06:38;;;;;;;45.42;23.55;;;5.20;99.90;;;;;;5002544;28;20385;-81
2022/03/15 01:09:04;;;;;;;52.53;25.95;;;5.20;99.90;;;;;;4996554;28;20038;-80
2022/03/15 01:11:30;;;;;;;55.95;26.80;;;5.20;99.90;;;;;;5010800;28;20359;-81
2022/03/15 01:13:56;;;;;;;56.05;25.33;;;5.20;99.90;;;;;;5008043;28;20045;-81
2022/03/15 01:16:21;;;;;;;49.20;24.83;;;5.20;99.90;;;;;;5005454;28;20037;-81
2022/03/15 01:18:47;;;;;;;54.10;25.83;;;5.30;99.90;;;;;;5007008;28;20026;-81
2022/03/15 01:21:13;;;;;;;45.05;25.13;;;5.30;99.90;;;;;;5008742;28;20049;-80
2022/03/15 01:23:39;;;;;;;55.97;26.25;;;5.30;99.90;;;;;;5001714;28;20030;-81
2022/03/15 01:26:05;;;;;;;51.25;26.10;;;5.40;99.90;;;;;;5025657;28;20037;-81
2022/03/15 01:28:30;;;;;;;52.83;26.92;;;5.50;99.90;;;;;;4998523;28;20033;-81
2022/03/15 01:30:56;;;;;;;48.20;26.92;;;5.60;99.90;;;;;;5010537;28;20033;-82
2022/03/15 01:33:23;;;;;;;51.38;26.73;;;5.60;99.90;;;;;;4998666;28;20050;-82
2022/03/15 01:35:48;;;;;;;48.58;25.25;;;5.70;99.90;;;;;;5000918;28;20058;-81
2022/03/15 01:38:14;;;;;;;55.22;26.65;;;5.70;99.90;;;;;;5010067;28;20073;-81
2022/03/15 01:40:40;;;;;;;53.78;27.05;;;5.70;99.90;;;;;;5009357;28;20022;-81
2022/03/15 01:43:05;;;;;;;54.08;26.50;;;5.70;99.90;;;;;;4999479;28;20061;-81
2022/03/15 01:45:36;;;;;;;56.63;27.95;;;5.80;99.90;;;;;;5023528;28;20035;-80
2022/03/15 01:48:05;;;;;;;54.90;28.25;;;5.80;99.90;;;;;;5008721;28;20156;-81
2022/03/15 01:50:31;;;;;;;51.88;27.02;;;5.80;99.90;;;;;;5010812;28;20533;-81
2022/03/15 01:52:57;;;;;;;55.33;26.55;;;5.90;99.90;;;;;;5014391;28;20121;-81
2022/03/15 01:55:22;;;;;;;53.88;27.85;;;5.90;99.90;;;;;;5014935;28;20394;-82
2022/03/15 01:57:49;;;;;;;51.55;27.58;;;5.90;99.90;;;;;;5013709;28;20029;-81
2022/03/15 02:00:16;;;;;;;51.30;28.10;;;5.90;99.90;;;;;;5013930;28;20355;-82
2022/03/15 02:02:41;;;;;;;50.22;26.63;;;5.90;99.90;;;;;;5014469;28;20092;-82
2022/03/15 02:05:07;;;;;;;49.88;25.95;;;5.90;99.90;;;;;;5013990;28;20063;-81
2022/03/15 02:07:33;;;;;;;44.17;24.45;;;5.90;99.90;;;;;;5014904;28;20022;-81
2022/03/15 02:09:58;;;;;;;45.17;24.13;;;6.00;99.90;;;;;;5013505;28;20036;-81
2022/03/15 02:12:24;;;;;;;48.22;24.40;;;6.00;99.90;;;;;;5012621;28;20037;-81
2022/03/15 02:14:49;;;;;;;41.78;22.42;;;6.00;99.90;;;;;;5011369;28;20472;-81
2022/03/15 02:17:15;;;;;;;47.78;22.38;;;6.00;99.90;;;;;;5014059;28;20026;-81
2022/03/15 02:19:43;;;;;;;46.53;23.77;;;6.00;99.90;;;;;;5011657;28;20038;-82
2022/03/15 02:22:09;;;;;;;42.42;22.15;;;6.10;99.90;;;;;;5002029;28;20030;-81
2022/03/15 02:24:35;;;;;;;39.20;22.15;;;6.10;99.90;;;;;;5002735;28;20030;-81
2022/03/15 02:27:01;;;;;;;35.90;21.58;;;6.10;99.90;;;;;;5014892;28;20527;-82
2022/03/15 02:29:27;;;;;;;39.15;20.10;;;6.10;99.90;;;;;;5013268;28;20511;-82
2022/03/15 02:31:52;;;;;;;46.80;22.90;;;6.10;99.90;;;;;;5003680;28;20108;-82
2022/03/15 02:34:18;;;;;;;37.85;21.40;;;6.10;99.90;;;;;;5005120;28;20038;-81
2022/03/15 02:36:44;;;;;;;40.47;20.45;;;6.10;99.90;;;;;;5000739;28;20041;-82
2022/03/15 02:39:10;;;;;;;40.53;20.25;;;6.20;99.90;;;;;;5014451;28;20034;-82
2022/03/15 02:41:38;;;;;;;36.65;20.67;;;6.20;99.90;;;;;;5013194;28;20029;-81
2022/03/15 02:44:04;;;;;;;41.05;20.67;;;6.20;99.90;;;;;;5014158;28;20030;-81
2022/03/15 02:46:30;;;;;;;33.03;20.30;;;6.20;99.90;;;;;;5029534;28;20044;-82
2022/03/15 02:48:56;;;;;;;44.03;22.33;;;6.10;99.90;;;;;;5011657;28;20137;-81
2022/03/15 02:51:22;;;;;;;39.97;21.13;;;6.20;99.90;;;;;;5013327;28;20021;-81
2022/03/15 02:53:51;;;;;;;34.65;19.23;;;6.20;99.90;;;;;;5012220;28;20048;-81
2022/03/15 02:56:17;;;;;;;36.50;19.95;;;6.10;99.90;;;;;;5012230;28;20030;-80
2022/03/15 02:58:42;;;;;;;37.47;19.92;;;6.10;99.90;;;;;;5014538;28;20034;-82
2022/03/15 03:01:08;;;;;;;34.20;19.35;;;6.10;99.90;;;;;;5012663;28;20022;-81
2022/03/15 03:03:34;;;;;;;36.92;20.40;;;6.10;99.90;;;;;;5010965;28;20026;-81
2022/03/15 03:06:00;;;;;;;31.30;18.75;;;6.10;99.90;;;;;;5004938;28;20105;-81
2022/03/15 03:08:27;;;;;;;37.13;21.55;;;6.10;99.90;;;;;;5007389;28;20116;-82
2022/03/15 03:10:56;;;;;;;28.85;17.63;;;6.10;99.90;;;;;;5013420;28;20022;-81
2022/03/15 03:13:26;;;;;;;33.35;19.40;;;6.10;99.90;;;;;;5009799;28;20038;-81
2022/03/15 03:15:54;;;;;;;34.08;18.58;;;6.10;99.90;;;;;;5012814;28;20022;-82
2022/03/15 03:18:20;;;;;;;36.92;19.10;;;6.00;99.90;;;;;;5013030;28;20462;-82
2022/03/15 03:20:46;;;;;;;31.92;18.45;;;6.00;99.90;;;;;;5012613;28;20071;-82
2022/03/15 03:23:12;;;;;;;35.10;19.55;;;6.00;99.90;;;;;;5013299;28;20033;-82
2022/03/15 03:25:38;;;;;;;34.30;19.45;;;6.00;99.90;;;;;;5012593;28;20490;-82
2022/03/15 03:28:05;;;;;;;36.10;19.13;;;6.00;99.90;;;;;;5012960;28;20413;-82
2022/03/15 03:30:30;;;;;;;34.38;18.70;;;6.00;99.90;;;;;;5012376;28;20022;-80
2022/03/15 03:32:56;;;;;;;30.48;18.42;;;5.90;99.90;;;;;;5014288;28;20034;-82
2022/03/15 03:35:22;;;;;;;28.65;16.67;;;5.90;99.90;;;;;;5011947;28;20037;-82
2022/03/15 03:37:47;;;;;;;35.13;19.02;;;6.00;99.90;;;;;;5013012;28;20033;-82
2022/03/15 03:40:13;;;;;;;30.75;17.30;;;6.00;99.90;;;;;;5012124;28;20048;-81
2022/03/15 03:42:39;;;;;;;33.65;18.52;;;6.00;99.90;;;;;;5000650;28;20050;-82
2022/03/15 03:45:05;;;;;;;32.55;18.27;;;6.00;99.90;;;;;;5010096;28;20037;-81
2022/03/15 03:47:31;;;;;;;29.90;17.92;;;6.00;99.90;;;;;;4998987;28;20034;-81
2022/03/15 03:49:57;;;;;;;32.20;17.80;;;6.00;99.90;;;;;;5009608;28;20384;-81
2022/03/15 03:52:22;;;;;;;30.00;16.95;;;6.00;99.90;;;;;;5004720;28;20080;-81
2022/03/15 03:54:48;;;;;;;28.70;16.83;;;6.00;99.90;;;;;;5001900;28;20069;-82
2022/03/15 03:57:16;;;;;;;30.55;17.30;;;6.00;99.90;;;;;;5010598;28;20109;-81
2022/03/15 03:59:41;;;;;;;30.02;17.23;;;6.00;99.90;;;;;;5002111;28;20085;-81
2022/03/15 04:02:07;;;;;;;33.60;18.38;;;6.00;99.90;;;;;;4997636;28;20025;-81
2022/03/15 04:04:32;;;;;;;33.10;18.38;;;6.00;99.90;;;;;;5010727;28;20034;-81
2022/03/15 04:07:00;;;;;;;39.22;18.50;;;6.00;99.90;;;;;;5012597;28;20038;-81
2022/03/15 04:09:25;;;;;;;31.40;17.77;;;6.00;99.90;;;;;;4998995;28;20053;-82
2022/03/15 04:11:52;;;;;;;30.25;17.20;;;6.00;99.90;;;;;;5009948;28;20065;-83
2022/03/15 04:14:17;;;;;;;30.38;17.00;;;6.00;99.90;;;;;;5007853;28;20489;-81
2022/03/15 04:16:43;;;;;;;29.88;17.92;;;6.00;99.90;;;;;;5007270;28;20052;-81
2022/03/15 04:19:09;;;;;;;32.55;17.38;;;6.00;99.90;;;;;;5007958;28;20522;-81
2022/03/15 04:21:35;;;;;;;31.45;17.40;;;6.10;99.90;;;;;;5012764;28;20060;-80
2022/03/15 04:24:01;;;;;;;28.55;16.02;;;6.00;99.90;;;;;;5012700;28;20037;-80
2022/03/15 04:26:27;;;;;;;30.20;16.80;;;6.00;99.90;;;;;;5012308;28;20420;-81
2022/03/15 04:28:54;;;;;;;27.85;17.52;;;6.00;99.90;;;;;;5012440;28;20101;-81
2022/03/15 04:31:21;;;;;;;31.77;17.88;;;6.00;99.90;;;;;;5012029;28;20025;-81
2022/03/15 04:33:47;;;;;;;29.40;16.70;;;6.00;99.90;;;;;;5004670;28;20034;-81
2022/03/15 04:36:12;;;;;;;27.80;14.88;;;6.00;99.90;;;;;;5012194;28;20385;-81
2022/03/15 04:38:38;;;;;;;28.58;16.48;;;6.00;99.90;;;;;;5003296;28;20072;-79
2022/03/15 04:41:07;;;;;;;26.25;15.30;;;6.00;99.90;;;;;;5001108;28;20064;-80
2022/03/15 04:43:33;;;;;;;29.52;16.10;;;6.00;99.90;;;;;;5012261;28;20022;-81
2022/03/15 04:46:00;;;;;;;27.13;16.08;;;6.00;99.90;;;;;;5012597;28;20045;-81
2022/03/15 04:48:25;;;;;;;30.30;15.20;;;6.00;99.90;;;;;;4994612;28;20504;-80
2022/03/15 04:50:51;;;;;;;30.90;15.73;;;6.00;99.90;;;;;;5008155;28;20040;-80
2022/03/15 04:53:18;;;;;;;24.90;15.65;;;6.00;99.90;;;;;;4999120;28;20030;-80
2022/03/15 04:55:44;;;;;;;26.60;16.45;;;6.00;99.90;;;;;;5011478;28;20022;-81
2022/03/15 04:58:10;;;;;;;26.02;15.20;;;6.00;99.90;;;;;;5011599;28;20108;-81
2022/03/15 05:00:35;;;;;;;29.50;15.80;;;6.00;99.90;;;;;;5009092;28;20267;-81
2022/03/15 05:03:01;;;;;;;23.90;15.73;;;6.00;99.90;;;;;;5003711;28;20125;-80
2022/03/15 05:05:26;;;;;;;27.63;16.48;;;6.00;99.90;;;;;;5008618;28;20049;-81
2022/03/15 05:07:52;;;;;;;28.30;15.20;;;6.00;99.90;;;;;;5000281;28;20042;-82
2022/03/15 05:13:02;;;;;;;25.38;15.57;;;6.00;99.90;;;;;;5008766;28;20468;-82
2022/03/15 05:15:29;;;;;;;28.30;14.38;;;6.00;99.90;;;;;;5011634;28;20025;-80
2022/03/15 05:17:54;;;;;;;21.38;14.52;;;6.00;99.90;;;;;;5013180;28;20034;-80
2022/03/15 05:20:20;;;;;;;24.27;14.82;;;6.00;99.90;;;;;;5010443;28;20442;-81
2022/03/15 05:22:46;;;;;;;34.88;15.98;;;6.00;99.90;;;;;;5012075;28;20527;-81
2022/03/15 05:25:15;;;;;;;29.60;16.05;;;6.00;99.90;;;;;;5010937;28;20105;-80
2022/03/15 05:27:42;;;;;;;27.73;15.50;;;6.00;99.90;;;;;;5016417;28;20033;-80
2022/03/15 05:30:08;;;;;;;24.23;14.98;;;5.90;99.90;;;;;;5009489;28;20018;-80
2022/03/15 05:32:34;;;;;;;26.70;14.85;;;5.90;99.90;;;;;;5011359;28;20123;-80
2022/03/15 05:35:01;;;;;;;25.92;14.98;;;5.90;99.90;;;;;;5006084;28;20774;-78
2022/03/15 05:37:27;;;;;;;26.05;14.73;;;5.90;99.90;;;;;;5031063;28;20465;-80
2022/03/15 05:39:53;;;;;;;27.25;15.15;;;5.90;99.90;;;;;;5016593;28;20113;-80
2022/03/15 05:42:19;;;;;;;22.98;14.65;;;5.90;99.90;;;;;;5002790;28;20034;-82
2022/03/15 05:44:45;;;;;;;26.60;15.07;;;5.80;99.90;;;;;;5006284;28;20038;-80
2022/03/15 05:47:11;;;;;;;27.02;15.98;;;5.90;99.90;;;;;;5026508;28;20034;-82
2022/03/15 05:49:36;;;;;;;25.70;15.45;;;5.90;99.90;;;;;;5007576;28;20129;-79
2022/03/15 05:52:03;;;;;;;26.85;15.15;;;5.90;99.90;;;;;;5013370;28;20048;-80
2022/03/15 05:54:29;;;;;;;32.35;15.60;;;5.80;99.90;;;;;;5012147;28;20117;-78
2022/03/15 05:56:55;;;;;;;25.23;14.70;;;5.80;99.90;;;;;;5009225;28;20077;-80
2022/03/15 05:59:21;;;;;;;25.70;15.18;;;5.80;99.90;;;;;;5007165;28;20042;-81
2022/03/15 06:01:46;;;;;;;24.10;14.50;;;5.80;99.90;;;;;;5007232;28;20031;-81
2022/03/15 06:04:12;;;;;;;28.30;14.95;;;5.80;99.90;;;;;;5021285;28;20514;-81
2022/03/15 06:06:38;;;;;;;27.15;13.77;;;5.80;99.90;;;;;;5006668;28;20073;-82
2022/03/15 06:09:04;;;;;;;24.63;14.18;;;5.80;99.90;;;;;;5007550;28;20063;-81
2022/03/15 06:11:32;;;;;;;25.88;14.63;;;5.80;99.90;;;;;;5011698;28;20482;-81
2022/03/15 06:14:01;;;;;;;24.52;14.18;;;5.80;99.90;;;;;;5009535;28;20052;-81
2022/03/15 06:16:27;;;;;;;24.05;13.20;;;5.80;99.90;;;;;;5022275;28;20026;-82
2022/03/15 06:18:53;;;;;;;21.80;13.52;;;5.90;99.90;;;;;;5013423;28;20460;-80
2022/03/15 06:21:19;;;;;;;27.63;14.60;;;5.90;99.90;;;;;;5007260;28;20055;-81
2022/03/15 06:23:44;;;;;;;23.38;13.27;;;5.90;99.90;;;;;;5009679;28;20033;-81
2022/03/15 06:26:10;;;;;;;24.58;12.95;;;5.90;99.90;;;;;;5007248;28;20137;-81
2022/03/15 06:28:37;;;;;;;27.88;14.32;;;5.90;99.90;;;;;;5008297;28;20045;-81
2022/03/15 06:31:03;;;;;;;25.65;14.13;;;6.00;99.90;;;;;;5002484;28;20026;-80
2022/03/15 06:33:29;;;;;;;22.13;13.23;;;6.00;99.90;;;;;;5008627;28;20042;-81
2022/03/15 06:35:55;;;;;;;26.15;12.57;;;6.00;99.90;;;;;;5003934;28;20175;-81
2022/03/15 06:38:20;;;;;;;24.55;14.93;;;6.00;99.90;;;;;;5009058;28;20659;-81
2022/03/15 06:40:46;;;;;;;20.67;12.73;;;6.10;99.90;;;;;;5008000;28;20144;-81
2022/03/15 06:43:13;;;;;;;21.83;12.45;;;6.10;99.90;;;;;;5004872;28;20052;-81
2022/03/15 06:45:42;;;;;;;23.90;12.10;;;6.10;99.90;;;;;;4997567;28;20026;-82
2022/03/15 06:48:08;;;;;;;20.80;11.43;;;6.20;99.90;;;;;;5016786;28;20057;-81
2022/03/15 06:50:35;;;;;;;24.65;13.25;;;6.20;99.90;;;;;;5014226;28;20045;-81
2022/03/15 06:53:01;;;;;;;19.45;11.77;;;6.30;99.90;;;;;;5012088;28;20544;-82
2022/03/15 06:55:27;;;;;;;24.38;12.13;;;6.30;99.90;;;;;;5024395;28;20029;-82
2022/03/15 06:57:52;;;;;;;22.50;11.15;;;6.30;99.90;;;;;;5007152;28;20082;-81
2022/03/15 07:00:18;;;;;;;22.88;12.38;;;6.40;99.90;;;;;;5004852;28;20122;-80
2022/03/15 07:02:44;;;;;;;18.67;10.73;;;6.40;99.90;;;;;;5005646;28;20073;-82
2022/03/15 07:05:10;;;;;;;23.10;11.13;;;6.50;99.90;;;;;;5019775;28;20038;-80
2022/03/15 07:07:37;;;;;;;20.92;10.80;;;6.50;99.90;;;;;;5010554;28;20148;-81
2022/03/15 07:10:05;;;;;;;19.48;10.93;;;6.60;99.90;;;;;;5002948;28;20069;-82
2022/03/15 07:12:32;;;;;;;22.90;10.73;;;6.60;99.90;;;;;;5011283;28;20137;-82
2022/03/15 07:14:57;;;;;;;20.73;11.15;;;6.60;99.90;;;;;;5005799;28;20035;-82
2022/03/15 07:17:23;;;;;;;24.75;10.25;;;6.70;99.90;;;;;;5011554;28;20381;-83
2022/03/15 07:19:48;;;;;;;18.10;10.00;;;6.70;99.90;;;;;;5022595;28;20145;-82
2022/03/15 07:22:14;;;;;;;18.05;10.13;;;6.70;99.90;;;;;;5031651;28;20053;-82
2022/03/15 07:24:39;;;;;;;19.75;10.60;;;6.80;99.90;;;;;;5030991;28;20037;-83
2022/03/15 07:27:05;;;;;;;21.52;10.15;;;6.80;99.90;;;;;;5024008;28;20108;-83
2022/03/15 07:29:31;;;;;;;19.05;9.20;;;6.80;99.90;;;;;;5014247;28;20496;-83
2022/03/15 07:31:56;;;;;;;21.00;10.18;;;6.90;99.90;;;;;;5013237;28;20116;-82
2022/03/15 07:34:22;;;;;;;17.85;9.57;;;6.90;99.90;;;;;;5023070;28;20069;-83
2022/03/15 07:36:48;;;;;;;19.45;9.70;;;7.00;99.90;;;;;;5012363;28;20382;-82
2022/03/15 07:39:13;;;;;;;19.48;10.13;;;7.00;99.90;;;;;;5029460;28;20095;-83
2022/03/15 07:41:39;;;;;;;15.43;9.82;;;7.00;99.90;;;;;;5010637;28;20054;-81
2022/03/15 07:44:11;;;;;;;16.30;9.32;;;7.00;99.90;;;;;;5013490;28;20021;-80
2022/03/15 07:46:37;;;;;;;16.20;9.15;;;7.10;99.90;;;;;;5006367;28;20101;-81
2022/03/15 07:49:04;;;;;;;19.67;9.55;;;7.10;99.90;;;;;;4996904;28;20073;-81
2022/03/15 07:51:30;;;;;;;18.17;8.70;;;7.20;99.90;;;;;;5017236;28;20052;-81
2022/03/15 07:53:56;;;;;;;15.70;9.20;;;7.20;99.90;;;;;;5030185;28;20069;-81
2022/03/15 07:56:22;;;;;;;17.20;9.13;;;7.30;99.90;;;;;;5023706;28;20480;-81
2022/03/15 07:58:48;;;;;;;16.98;8.90;;;7.30;99.90;;;;;;5010955;28;20068;-82
2022/03/15 08:01:13;;;;;;;18.88;9.32;;;7.40;99.90;;;;;;5019828;28;20041;-82
2022/03/15 08:03:39;;;;;;;17.95;9.18;;;7.40;99.90;;;;;;5017144;28;20109;-82
2022/03/15 08:06:05;;;;;;;20.35;8.15;;;7.50;99.90;;;;;;5030847;28;20481;-81
2022/03/15 08:08:30;;;;;;;22.88;8.77;;;7.50;99.90;;;;;;5022791;28;20034;-81
2022/03/15 08:10:56;;;;;;;15.68;8.82;;;7.50;99.90;;;;;;5023147;28;20053;-81
2022/03/15 08:13:22;;;;;;;19.30;8.75;;;7.60;99.90;;;;;;5016909;28;20041;-81
2022/03/15 08:15:47;;;;;;;15.60;9.13;;;7.60;99.90;;;;;;5011420;28;20030;-82
2022/03/15 08:18:13;;;;;;;18.17;8.65;;;7.60;99.90;;;;;;5012898;28;20447;-82
2022/03/15 08:20:40;;;;;;;19.55;7.13;;;7.70;99.90;;;;;;5026052;28;20027;-82
2022/03/15 08:23:06;;;;;;;16.48;7.85;;;7.70;99.90;;;;;;5026186;28;20032;-82
2022/03/15 08:25:32;;;;;;;20.10;8.18;;;7.80;99.90;;;;;;5030237;28;20025;-82
2022/03/15 08:28:00;;;;;;;16.33;7.68;;;7.80;99.90;;;;;;5020233;28;20527;-82
2022/03/15 08:30:26;;;;;;;14.57;6.88;;;7.90;99.90;;;;;;5021647;28;20022;-82
2022/03/15 08:32:52;;;;;;;13.10;7.20;;;7.90;99.90;;;;;;5025593;28;20025;-82
2022/03/15 08:35:18;;;;;;;17.00;7.32;;;8.00;99.90;;;;;;5007141;28;20030;-82
2022/03/15 08:37:50;;;;;;;17.85;7.50;;;8.10;99.90;;;;;;5013110;28;20029;-82
2022/03/15 08:40:16;;;;;;;17.20;6.70;;;8.10;99.90;;;;;;5019373;28;20091;-82
2022/03/15 08:42:42;;;;;;;12.93;6.25;;;8.20;99.90;;;;;;5012059;28;20072;-82
2022/03/15 08:45:10;;;;;;;16.42;7.18;;;8.30;99.90;;;;;;5012556;28;20022;-82
2022/03/15 08:47:36;;;;;;;13.68;7.15;;;8.30;99.90;;;;;;5022593;28;20462;-81
2022/03/15 08:50:03;;;;;;;11.93;7.07;;;8.40;99.90;;;;;;5010115;28;20198;-82
2022/03/15 08:52:30;;;;;;;13.57;6.90;;;8.50;99.90;;;;;;5011212;28;20049;-82
2022/03/15 08:54:56;;;;;;;13.55;6.38;;;8.50;99.90;;;;;;5010380;28;20050;-82
2022/03/15 08:57:22;;;;;;;12.43;6.43;;;8.60;99.90;;;;;;5010477;28;20026;-82
2022/03/15 08:59:47;;;;;;;13.65;6.15;;;8.70;99.90;;;;;;5023659;28;20427;-82
2022/03/15 09:02:13;;;;;;;15.40;6.43;;;8.80;99.90;;;;;;5011161;28;20114;-82
2022/03/15 09:04:39;;;;;;;19.98;6.72;;;8.90;99.90;;;;;;5010672;28;20026;-82
2022/03/15 09:07:05;;;;;;;13.70;5.95;;;9.00;99.90;;;;;;5026111;28;20026;-82
2022/03/15 09:09:30;;;;;;;15.93;6.60;;;9.10;99.90;;;;;;5018572;28;20548;-82
2022/03/15 09:11:56;;;;;;;16.13;6.10;;;9.10;99.90;;;;;;5001834;28;20018;-82
2022/03/15 09:14:22;;;;;;;13.55;5.82;;;9.20;99.90;;;;;;5007422;28;20038;-82
2022/03/15 09:16:47;;;;;;;15.80;6.50;;;9.20;99.90;;;;;;5017391;28;20054;-83
2022/03/15 09:19:13;;;;;;;16.38;5.85;;;9.30;99.90;;;;;;5009493;28;20034;-82
2022/03/15 09:21:39;;;;;;;14.15;6.07;;;9.30;99.90;;;;;;5013205;28;20037;-82
2022/03/15 09:24:05;;;;;;;13.05;5.35;;;9.30;99.90;;;;;;5017364;28;20115;-82
2022/03/15 09:26:32;;;;;;;9.48;5.38;;;9.50;99.90;;;;;;5008621;28;20168;-82
2022/03/15 09:28:57;;;;;;;10.43;5.13;;;9.50;99.90;;;;;;5007586;28;20057;-82
2022/03/15 09:31:23;;;;;;;13.95;5.47;;;9.60;99.90;;;;;;5007723;28;20030;-82
2022/03/15 09:33:49;;;;;;;11.55;4.60;;;9.70;99.90;;;;;;5007125;28;20045;-81
2022/03/15 09:36:15;;;;;;;12.93;5.30;;;9.80;99.90;;;;;;5004899;28;20052;-82
2022/03/15 09:38:42;;;;;;;11.60;5.70;;;9.80;99.90;;;;;;5006467;28;20030;-81
2022/03/15 09:41:08;;;;;;;12.63;4.95;;;10.00;99.90;;;;;;5024193;28;20462;-81
2022/03/15 09:43:40;;;;;;;10.45;5.40;;;10.10;99.90;;;;;;5029120;28;20025;-81
2022/03/15 09:46:08;;;;;;;;;;;10.20;99.90;;;;;;5001934;28;20069;-81
2022/03/15 09:48:38;;;;;;;12.70;4.78;;;10.20;99.90;;;;;;5009711;28;20365;-81
2022/03/15 09:51:04;;;;;;;9.25;4.22;;;10.30;99.90;;;;;;5007766;28;20050;-83
2022/03/15 09:53:33;;;;;;;10.40;3.63;;;10.30;99.90;;;;;;5013312;28;20121;-82
2022/03/15 09:55:58;;;;;;;11.50;4.57;;;10.40;99.90;;;;;;5025170;28;20080;-81
2022/03/15 09:58:24;;;;;;;10.55;5.15;;;10.50;99.90;;;;;;5014844;28;20026;-83
2022/03/15 10:00:52;;;;;;;9.80;4.22;;;10.60;99.90;;;;;;5014734;28;20184;-82
2022/03/15 10:03:18;;;;;;;7.95;4.20;;;10.60;99.90;;;;;;5025712;28;20025;-83
2022/03/15 10:05:45;;;;;;;9.82;3.70;;;10.70;99.90;;;;;;5011715;28;20488;-81
2022/03/15 10:08:13;;;;;;;11.68;4.53;;;10.80;99.90;;;;;;5009873;28;20029;-82
2022/03/15 10:10:38;;;;;;;8.20;3.83;;;10.80;99.90;;;;;;5018651;28;20033;-82
2022/03/15 10:13:04;;;;;;;8.88;3.67;;;10.80;99.90;;;;;;5016691;28;20465;-83
2022/03/15 10:15:29;;;;;;;9.27;4.22;;;10.90;99.90;;;;;;5029253;28;20446;-82
2022/03/15 10:18:04;;;;;;;13.27;3.95;;;10.90;99.90;;;;;;5014654;28;20477;-83
2022/03/15 10:20:37;;;;;;;9.38;3.78;;;10.90;99.90;;;;;;5013857;28;20038;-83
2022/03/15 10:23:03;;;;;;;8.23;3.67;;;11.00;99.90;;;;;;5013925;28;20026;-83
2022/03/15 10:25:31;;;;;;;11.75;4.40;;;11.00;99.90;;;;;;5014609;28;20030;-83
2022/03/15 10:27:59;;;;;;;13.23;5.18;;;11.10;99.90;;;;;;5008830;28;20022;-83
2022/03/15 10:30:26;;;;;;;7.93;4.07;;;11.10;99.90;;;;;;5016996;28;20494;-83
2022/03/15 10:32:53;;;;;;;12.63;4.65;;;11.20;99.90;;;;;;5023381;28;20112;-83
2022/03/15 10:35:25;;;;;;;12.60;5.25;;;11.20;99.90;;;;;;5005455;28;20094;-83
2022/03/15 10:37:51;;;;;;;13.03;5.07;;;11.20;99.90;;;;;;5006112;28;20104;-83
2022/03/15 10:40:18;;;;;;;14.00;5.18;;;11.10;99.90;;;;;;5013679;28;20052;-83
2022/03/15 10:42:46;;;;;;;13.07;5.15;;;11.10;99.90;;;;;;5024800;28;20026;-83
2022/03/15 10:45:21;;;;;;;18.77;6.82;;;11.10;99.90;;;;;;5009963;28;20036;-82
2022/03/15 10:47:48;;;;;;;10.65;5.18;;;11.20;99.90;;;;;;5011636;28;20478;-83
2022/03/15 10:50:16;;;;;;;10.02;5.22;;;11.20;99.90;;;;;;5011996;28;20164;-82
2022/03/15 10:52:45;;;;;;;12.10;4.70;;;11.20;99.90;;;;;;5015432;28;20026;-83
2022/03/15 10:55:23;;;;;;;10.43;5.15;;;11.30;99.90;;;;;;5016098;28;20048;-82
2022/03/15 10:57:54;;;;;;;10.48;5.25;;;11.30;99.90;;;;;;5013182;28;20033;-81
2022/03/15 11:00:42;;;;;;;11.60;5.47;;;11.40;99.90;;;;;;5013524;28;20030;-82
2022/03/15 11:03:25;;;;;;;10.48;5.32;;;11.40;99.90;;;;;;5008049;28;20493;-82
2022/03/15 11:05:56;;;;;;;10.38;4.97;;;11.50;99.90;;;;;;5020185;28;20504;-82
2022/03/15 11:08:22;;;;;;;10.93;5.10;;;11.50;99.90;;;;;;5015730;28;20037;-81
2022/03/15 11:10:53;;;;;;;12.38;5.18;;;11.60;99.90;;;;;;5015815;28;20110;-81
2022/03/15 11:13:18;;;;;;;11.25;5.35;;;11.60;99.90;;;;;;5014863;28;20040;-82
2022/03/15 11:15:48;;;;;;;13.70;5.40;;;11.60;99.90;;;;;;5015755;28;20085;-82
2022/03/15 11:18:16;;;;;;;9.23;5.85;;;11.50;99.90;;;;;;5014864;28;20432;-82
2022/03/15 11:20:43;;;;;;;13.90;5.38;;;11.50;99.90;;;;;;5017749;28;20033;-82
2022/03/15 11:23:11;;;;;;;12.75;6.20;;;11.60;99.90;;;;;;5014709;28;20033;-82
2022/03/15 11:25:43;;;;;;;8.63;5.18;;;11.60;99.90;;;;;;5015220;28;20026;-82
2022/03/15 11:28:14;;;;;;;8.75;4.75;;;11.70;99.90;;;;;;5013856;28;20025;-80
2022/03/15 11:30:42;;;;;;;12.87;5.43;;;11.80;99.90;;;;;;5015329;28;20105;-82
2022/03/15 11:33:09;;;;;;;10.48;5.38;;;11.80;99.90;;;;;;5015597;28;20045;-82
2022/03/15 11:35:36;;;;;;;9.70;5.07;;;11.80;99.90;;;;;;5015278;28;20447;-82
2022/03/15 11:38:05;;;;;;;11.23;5.85;;;11.80;99.90;;;;;;5015479;28;20029;-81
2022/03/15 11:40:31;;;;;;;16.20;5.45;;;11.80;99.90;;;;;;5010210;28;20041;-81
2022/03/15 11:43:37;;;;;;;8.82;4.40;;;11.90;99.90;;;;;;5030801;28;20048;-82
2022/03/15 11:46:24;;;;;;;9.55;4.53;;;12.00;99.90;;;;;;5012596;28;20022;-80
2022/03/15 11:48:52;;;;;;;12.25;5.05;;;12.20;99.90;;;;;;5012174;28;20037;-79
2022/03/15 11:51:40;;;;;;;14.18;4.93;;;12.30;99.90;;;;;;5027704;28;20025;-80
2022/03/15 11:54:35;;;;;;;9.98;4.60;;;12.30;99.70;;;;;;5010991;28;20030;-80
2022/03/15 11:57:05;;;;;;;9.32;4.80;;;12.30;99.60;;;;;;5000399;28;20038;-80
2022/03/15 11:59:47;;;;;;;11.48;5.32;;;12.30;99.60;;;;;;5013214;28;20493;-79
2022/03/15 12:02:12;;;;;;;10.65;4.68;;;12.30;99.60;;;;;;5013362;28;20105;-80
2022/03/15 12:04:44;;;;;;;12.65;5.45;;;12.40;99.60;;;;;;5013324;28;20045;-80
2022/03/15 12:07:12;;;;;;;9.63;4.90;;;12.50;99.30;;;;;;5012012;28;20500;-79
2022/03/15 12:09:46;;;;;;;12.30;5.18;;;12.40;99.10;;;;;;5013772;28;20124;-79
2022/03/15 12:12:11;;;;;;;11.05;4.75;;;12.40;99.00;;;;;;5012647;28;20037;-80
2022/03/15 12:14:43;;;;;;;11.35;4.53;;;12.50;99.00;;;;;;5014018;28;20030;-80
2022/03/15 12:17:12;;;;;;;7.38;4.38;;;12.50;98.90;;;;;;5012143;28;20109;-80
2022/03/15 12:19:47;;;;;;;11.57;4.78;;;12.40;98.60;;;;;;5013942;28;20026;-80
2022/03/15 12:22:30;;;;;;;11.45;5.15;;;12.40;98.70;;;;;;5011308;28;20397;-78
2022/03/15 12:25:06;;;;;;;9.98;4.75;;;12.50;98.70;;;;;;5014996;28;20040;-80
2022/03/15 12:27:44;;;;;;;10.73;5.10;;;12.50;98.70;;;;;;5014000;28;20389;-81
2022/03/15 12:30:14;;;;;;;9.05;4.20;;;12.50;98.70;;;;;;5013261;28;20057;-81
2022/03/15 12:32:55;;;;;;;12.00;4.00;;;12.40;98.60;;;;;;5012000;28;20457;-81
2022/03/15 12:35:25;;;;;;;10.93;4.60;;;12.40;98.50;;;;;;5005483;28;20069;-81
2022/03/15 12:38:02;;;;;;;10.18;5.13;;;12.30;98.40;;;;;;5007322;28;20037;-81
2022/03/15 12:40:32;;;;;;;10.75;4.18;;;12.20;98.40;;;;;;5001984;28;20022;-80
2022/03/15 12:43:01;;;;;;;11.50;4.80;;;12.20;98.50;;;;;;5013445;28;20049;-80